SLRI/RIB METAR and TAF weather

Enter ICAO airport designator
Station Type Date Time Source
SLRI METAR 2019/06/26 16:00 UTC NOAA

SLRI 261600Z 36010KT 9999 SCT017 32/24 Q1013


Station Type Date Time Source
SLRI Decoded METAR 2019/06/26 16:00 UTC NOAA

Riberalta, Bolivia (SLRI) 11-00S 066-07W
Jun 26, 2019 - 12:00 PM EDT / 2019.06.26 1600 UTC
Wind: from the N (360 degrees) at 12 MPH (10 KT):0
Visibility: greater than 7 mile(s):0
Sky conditions: partly cloudy
Temperature: 89 F (32 C)
Heat index: 98.4 F (36.9 C):1
Dew Point: 75 F (24 C)
Relative Humidity: 62%
Pressure (altimeter): 29.91 in. Hg (1013 hPa)
ob: SLRI 261600Z 36010KT 9999 SCT017 32/24 Q1013
cycle: 16

Station Type Date Time Source
SLRI TAF 2015/11/18 00:29 UTC NOAA

TAF SLRI 182200Z 1900/1924 00000KT 9999 FEW015 TX37/1919Z TN23/1910Z
BECMG 1912/1914 33011KT SCT020
TEMPO 1919/1922 8000 VCSH FEW020 FEW023CB BKN080

Example: see airport list